createdAt,value
2023-05-19T00:00:37.331Z,100798.06
2023-05-19T00:03:21.999Z,100805.30
2023-05-19T00:05:54.104Z,100826.65
2023-05-19T00:08:24.801Z,100818.24
2023-05-19T00:11:02.926Z,100812.17
2023-05-19T00:13:31.465Z,100808.89
2023-05-19T00:16:00.240Z,100810.17
2023-05-19T00:18:29.988Z,100818.27
2023-05-19T00:21:02.539Z,100814.56
2023-05-19T00:23:35.713Z,100808.58
2023-05-19T00:26:08.597Z,100807.66
2023-05-19T00:28:36.853Z,100805.31
2023-05-19T00:31:07.664Z,100803.30
2023-05-19T00:33:39.203Z,100798.16
2023-05-19T00:36:16.311Z,100795.55
2023-05-19T00:38:47.686Z,100799.69
2023-05-19T00:41:17.984Z,100803.09
2023-05-19T00:43:46.705Z,100807.86
2023-05-19T00:46:19.759Z,100806.88
2023-05-19T00:48:53.227Z,100807.70
2023-05-19T00:51:26.898Z,100803.30
2023-05-19T00:53:56.850Z,100800.98
2023-05-19T00:56:27.973Z,100803.01
2023-05-19T00:59:06.652Z,100804.39
2023-05-19T01:01:39.750Z,100807.50
2023-05-19T01:04:17.391Z,100802.11
2023-05-19T01:06:55.001Z,100804.31
2023-05-19T01:09:30.300Z,100805.74
2023-05-19T01:12:02.892Z,100808.09
2023-05-19T01:14:34.929Z,100804.25
2023-05-19T01:17:23.464Z,100806.77
2023-05-19T01:20:02.641Z,100804.88
2023-05-19T01:22:43.108Z,100807.19
2023-05-19T01:25:36.964Z,100807.25
2023-05-19T01:28:42.265Z,100809.45
2023-05-19T01:31:15.617Z,100808.96
2023-05-19T01:33:49.260Z,100807.75
2023-05-19T01:36:27.458Z,100803.47
2023-05-19T01:39:04.914Z,100803.95
2023-05-19T01:41:40.396Z,100810.38
2023-05-19T01:44:10.131Z,100808.73
2023-05-19T01:46:40.432Z,100806.56
2023-05-19T01:49:09.640Z,100807.04
2023-05-19T01:51:40.912Z,100815.50
2023-05-19T01:54:11.178Z,100819.24
2023-05-19T01:57:02.649Z,100815.02
2023-05-19T02:00:08.379Z,100816.42
2023-05-19T02:03:04.955Z,100815.02
2023-05-19T02:05:59.667Z,100817.01
2023-05-19T02:08:44.545Z,100816.76
2023-05-19T02:11:49.754Z,100822.27
2023-05-19T02:14:54.159Z,100821.30
2023-05-19T02:17:29.557Z,100823.83
2023-05-19T02:20:04.938Z,100830.18
2023-05-19T02:22:37.879Z,100830.16
2023-05-19T02:25:10.031Z,100832.80
2023-05-19T02:27:39.813Z,100829.73
2023-05-19T02:30:48.800Z,100828.77
2023-05-19T02:33:22.635Z,100826.54
2023-05-19T02:35:57.434Z,100824.52
2023-05-19T02:38:29.051Z,100821.41
2023-05-19T02:40:57.435Z,100823.89
2023-05-19T02:43:25.992Z,100820.55
2023-05-19T02:45:57.160Z,100818.54
2023-05-19T02:48:25.501Z,100819.63
2023-05-19T02:50:53.662Z,100816.86
2023-05-19T02:53:22.040Z,100819.90
2023-05-19T02:55:57.813Z,100816.85
2023-05-19T02:58:26.034Z,100819.61
2023-05-19T03:01:07.491Z,100818.23
2023-05-19T03:03:36.336Z,100817.77
2023-05-19T03:06:08.889Z,100819.46
2023-05-19T03:08:37.990Z,100817.88
2023-05-19T03:11:25.792Z,100812.71
2023-05-19T03:13:57.578Z,100815.60
2023-05-19T03:16:37.197Z,100818.98
2023-05-19T03:19:14.714Z,100820.73
2023-05-19T03:21:48.005Z,100817.35
2023-05-19T03:24:19.346Z,100820.03
2023-05-19T03:26:48.047Z,100819.70
2023-05-19T03:29:16.742Z,100819.89
2023-05-19T03:32:01.909Z,100822.84
2023-05-19T03:34:33.023Z,100821.78
2023-05-19T03:37:01.389Z,100816.38
2023-05-19T03:39:30.009Z,100816.80
2023-05-19T03:41:58.440Z,100816.34
2023-05-19T03:44:26.862Z,100818.35
2023-05-19T03:46:55.719Z,100819.70
2023-05-19T03:49:29.430Z,100821.53
2023-05-19T03:52:10.225Z,100824.56
2023-05-19T03:54:58.995Z,100828.13
2023-05-19T03:57:29.623Z,100828.61
2023-05-19T03:59:57.786Z,100830.33
2023-05-19T04:02:26.198Z,100828.40
2023-05-19T04:05:30.786Z,100834.71
2023-05-19T04:08:00.991Z,100829.59
2023-05-19T04:10:47.423Z,100827.79
2023-05-19T04:13:31.848Z,100828.04
2023-05-19T04:16:03.677Z,100828.61
2023-05-19T04:18:35.314Z,100830.33
2023-05-19T04:21:05.105Z,100824.73
2023-05-19T04:23:38.838Z,100822.83
2023-05-19T04:26:12.461Z,100824.59
2023-05-19T04:29:15.137Z,100822.33
2023-05-19T04:31:53.333Z,100823.92
2023-05-19T04:34:24.299Z,100821.32
2023-05-19T04:37:04.945Z,100825.14
2023-05-19T04:39:36.665Z,100823.36
2023-05-19T04:42:05.297Z,100826.52
2023-05-19T04:44:59.625Z,100823.71
2023-05-19T04:47:35.129Z,100823.61
2023-05-19T04:50:12.141Z,100826.48
2023-05-19T04:52:55.992Z,100826.02
2023-05-19T04:55:42.562Z,100831.82
2023-05-19T04:58:48.650Z,100832.13
2023-05-19T05:01:27.547Z,100826.36
2023-05-19T05:04:03.196Z,100826.10
2023-05-19T05:06:38.839Z,100825.84
2023-05-19T05:09:12.648Z,100827.52
2023-05-19T05:11:44.784Z,100829.90
2023-05-19T05:14:13.731Z,100824.14
2023-05-19T05:17:11.423Z,100824.09
2023-05-19T05:19:55.849Z,100818.95
2023-05-19T05:23:10.128Z,100822.86
2023-05-19T05:26:12.960Z,100824.80
2023-05-19T05:29:15.029Z,100826.42
2023-05-19T05:32:25.973Z,100825.63
2023-05-19T05:35:07.886Z,100828.94
2023-05-19T05:38:18.617Z,100828.19
2023-05-19T05:40:58.158Z,100831.56
2023-05-19T05:43:32.818Z,100834.73
2023-05-19T05:46:43.333Z,100833.65
2023-05-19T05:50:07.917Z,100837.27
2023-05-19T05:52:44.000Z,100840.03
2023-05-19T05:55:17.828Z,100840.05
2023-05-19T05:58:05.864Z,100840.10
2023-05-19T06:00:37.009Z,100840.83
2023-05-19T06:03:06.051Z,100840.04
2023-05-19T06:05:40.573Z,100840.09
2023-05-19T06:08:09.635Z,100840.88
2023-05-19T06:10:59.031Z,100840.45
2023-05-19T06:13:27.499Z,100840.82
2023-05-19T06:15:56.007Z,100842.17
2023-05-19T06:18:25.704Z,100842.42
2023-05-19T06:20:54.288Z,100843.11
2023-05-19T06:23:31.416Z,100845.20
2023-05-19T06:25:59.767Z,100848.89
2023-05-19T06:28:31.951Z,100849.67
2023-05-19T06:31:06.170Z,100850.03
2023-05-19T06:33:35.402Z,100848.66
2023-05-19T06:36:04.162Z,100852.91
2023-05-19T06:38:32.605Z,100853.76
2023-05-19T06:41:01.154Z,100854.54
2023-05-19T06:43:30.430Z,100854.06
2023-05-19T06:46:02.225Z,100854.47
2023-05-19T06:48:31.235Z,100853.45
2023-05-19T06:51:02.939Z,100856.37
2023-05-19T06:53:35.419Z,100855.71
2023-05-19T06:56:07.025Z,100853.20
2023-05-19T06:58:35.317Z,100855.67
2023-05-19T07:01:03.677Z,100855.36
2023-05-19T07:03:32.650Z,100852.48
2023-05-19T07:06:02.159Z,100851.89
2023-05-19T07:08:31.260Z,100847.48
2023-05-19T07:10:59.720Z,100848.71
2023-05-19T07:13:27.935Z,100847.36
2023-05-19T07:15:56.634Z,100845.20
2023-05-19T07:18:25.941Z,100837.97
2023-05-19T07:20:54.270Z,100832.85
2023-05-19T07:23:22.438Z,100837.83
2023-05-19T07:25:56.691Z,100840.48
2023-05-19T07:28:25.343Z,100840.84
2023-05-19T07:30:53.512Z,100837.36
2023-05-19T07:33:22.237Z,100841.81
2023-05-19T07:35:54.426Z,100837.29
2023-05-19T07:38:24.779Z,100838.58
2023-05-19T07:40:56.461Z,100833.77
2023-05-19T07:43:27.998Z,100832.16
2023-05-19T07:45:57.098Z,100825.87
2023-05-19T07:48:32.876Z,100824.98
2023-05-19T07:51:02.332Z,100823.73
2023-05-19T07:53:31.269Z,100820.45
2023-05-19T07:56:00.022Z,100819.23
2023-05-19T07:58:36.577Z,100817.31
2023-05-19T08:01:05.235Z,100819.31
2023-05-19T08:03:34.199Z,100820.04
2023-05-19T08:06:03.427Z,100816.50
2023-05-19T08:08:40.478Z,100820.60
2023-05-19T08:11:08.961Z,100816.63
2023-05-19T08:13:37.471Z,100813.16
2023-05-19T08:16:08.187Z,100815.04
2023-05-19T08:18:36.698Z,100814.20
2023-05-19T08:21:05.659Z,100816.83
2023-05-19T08:23:34.082Z,100818.02
2023-05-19T08:26:02.609Z,100819.86
2023-05-19T08:28:31.109Z,100820.88
2023-05-19T08:31:03.035Z,100823.33
2023-05-19T08:33:31.572Z,100822.16
2023-05-19T08:36:02.508Z,100819.29
2023-05-19T08:38:31.650Z,100817.46
2023-05-19T08:41:00.176Z,100816.67
2023-05-19T08:43:29.129Z,100814.13
2023-05-19T08:46:00.266Z,100816.81
2023-05-19T08:48:33.267Z,100821.89
2023-05-19T08:51:01.521Z,100824.48
2023-05-19T08:53:40.804Z,100822.41
2023-05-19T08:56:12.494Z,100824.00
2023-05-19T08:58:44.067Z,100825.35
2023-05-19T09:01:29.551Z,100822.25
2023-05-19T09:03:58.888Z,100822.17
2023-05-19T09:06:36.845Z,100821.02
2023-05-19T09:09:12.876Z,100818.15
2023-05-19T09:11:41.343Z,100817.20
2023-05-19T09:14:09.790Z,100809.62
2023-05-19T09:16:38.574Z,100812.83
2023-05-19T09:19:15.634Z,100807.17
2023-05-19T09:21:45.950Z,100808.69
2023-05-19T09:24:16.738Z,100809.96
2023-05-19T09:26:45.038Z,100802.15
2023-05-19T09:29:18.558Z,100804.07
2023-05-19T09:32:06.468Z,100808.55
2023-05-19T09:34:41.912Z,100802.57
2023-05-19T09:37:13.353Z,100803.66
2023-05-19T09:39:49.540Z,100798.41
2023-05-19T09:42:30.303Z,100803.77
2023-05-19T09:45:05.357Z,100802.37
2023-05-19T09:48:00.627Z,100801.61
2023-05-19T09:50:48.466Z,100805.36
2023-05-19T09:53:18.796Z,100805.70
2023-05-19T09:55:48.021Z,100809.37
2023-05-19T09:58:44.417Z,100806.40
2023-05-19T10:01:23.379Z,100803.27
2023-05-19T10:03:54.025Z,100800.11
2023-05-19T10:06:26.422Z,100797.70
2023-05-19T10:08:55.346Z,100793.18
2023-05-19T10:11:28.303Z,100800.10
2023-05-19T10:13:59.780Z,100801.48
2023-05-19T10:16:40.404Z,100793.90
2023-05-19T10:19:10.254Z,100796.17
2023-05-19T10:21:39.096Z,100792.56
2023-05-19T10:24:15.083Z,100794.29
2023-05-19T10:26:47.748Z,100786.74
2023-05-19T10:29:22.077Z,100785.50
2023-05-19T10:31:53.210Z,100786.70
2023-05-19T10:35:04.715Z,100782.53
2023-05-19T10:38:13.255Z,100781.90
2023-05-19T10:40:51.331Z,100784.73
2023-05-19T10:44:01.349Z,100780.67
2023-05-19T10:46:33.901Z,100777.46
2023-05-19T10:49:02.461Z,100780.92
2023-05-19T10:51:32.003Z,100783.33
2023-05-19T10:54:11.031Z,100779.77
2023-05-19T10:56:50.110Z,100774.20
2023-05-19T10:59:40.122Z,100776.66
2023-05-19T11:02:09.522Z,100772.15
2023-05-19T11:04:51.859Z,100769.27
2023-05-19T11:07:22.650Z,100770.01
2023-05-19T11:09:54.748Z,100771.76
2023-05-19T11:12:25.117Z,100772.25
2023-05-19T11:14:55.063Z,100776.05
2023-05-19T11:17:25.953Z,100783.25
2023-05-19T11:19:56.204Z,100780.93
2023-05-19T11:22:26.427Z,100777.36
2023-05-19T11:24:55.924Z,100779.18
2023-05-19T11:27:38.633Z,100779.66
2023-05-19T11:30:08.345Z,100774.73
2023-05-19T11:32:47.515Z,100776.83
2023-05-19T11:35:19.261Z,100779.92
2023-05-19T11:37:49.293Z,100780.19
2023-05-19T11:40:18.753Z,100788.10
2023-05-19T11:42:57.206Z,100787.17
2023-05-19T11:45:26.671Z,100786.39
2023-05-19T11:48:02.562Z,100782.16
2023-05-19T11:50:37.303Z,100781.48
2023-05-19T11:53:05.785Z,100778.71
2023-05-19T11:55:48.439Z,100775.33
2023-05-19T11:58:28.066Z,100781.61
2023-05-19T12:00:56.776Z,100782.88
2023-05-19T12:03:28.954Z,100791.66
2023-05-19T12:05:57.545Z,100793.24
2023-05-19T12:08:27.666Z,100797.84
2023-05-19T12:10:56.967Z,100795.97
2023-05-19T12:13:25.755Z,100793.54
2023-05-19T12:15:54.114Z,100785.20
2023-05-19T12:18:22.773Z,100783.05
2023-05-19T12:20:51.262Z,100779.16
2023-05-19T12:23:20.366Z,100776.96
2023-05-19T12:25:49.682Z,100776.08
2023-05-19T12:28:19.958Z,100777.01
2023-05-19T12:30:52.404Z,100769.45
2023-05-19T12:33:24.533Z,100768.46
2023-05-19T12:35:55.590Z,100769.31
2023-05-19T12:38:24.038Z,100769.98
2023-05-19T12:40:55.359Z,100769.03
2023-05-19T12:43:24.646Z,100772.74
2023-05-19T12:45:55.112Z,100768.45
2023-05-19T12:48:23.956Z,100768.65
2023-05-19T12:50:55.965Z,100768.47
2023-05-19T12:53:27.944Z,100768.17
2023-05-19T12:55:56.314Z,100766.18
2023-05-19T12:58:34.103Z,100769.40
2023-05-19T13:01:02.615Z,100768.38
2023-05-19T13:03:31.188Z,100767.77
2023-05-19T13:06:00.142Z,100766.15
2023-05-19T13:08:31.622Z,100762.52
2023-05-19T13:10:59.806Z,100763.38
2023-05-19T13:13:28.516Z,100760.28
2023-05-19T13:15:56.887Z,100759.48
2023-05-19T13:18:27.678Z,100757.85
2023-05-19T13:21:05.896Z,100752.91
2023-05-19T13:23:37.523Z,100752.25
2023-05-19T13:26:06.681Z,100752.63
2023-05-19T13:28:35.153Z,100753.41
2023-05-19T13:31:03.507Z,100752.85
2023-05-19T13:33:35.877Z,100757.83
2023-05-19T13:36:04.683Z,100759.80
2023-05-19T13:38:35.859Z,100760.58
2023-05-19T13:41:04.291Z,100760.25
2023-05-19T13:43:39.230Z,100759.84
2023-05-19T13:46:10.604Z,100760.73
2023-05-19T13:48:39.030Z,100765.11
2023-05-19T13:51:07.521Z,100762.77
2023-05-19T13:53:35.856Z,100763.76
2023-05-19T13:56:05.228Z,100761.73
2023-05-19T13:58:34.493Z,100762.38
2023-05-19T14:01:03.287Z,100767.02
2023-05-19T14:03:41.436Z,100763.29
2023-05-19T14:06:10.535Z,100763.19
2023-05-19T14:08:46.279Z,100757.64
2023-05-19T14:11:21.828Z,100757.91
2023-05-19T14:13:57.828Z,100753.89
2023-05-19T14:16:38.203Z,100758.75
2023-05-19T14:19:06.876Z,100755.95
2023-05-19T14:21:36.626Z,100756.80
2023-05-19T14:24:05.223Z,100756.13
2023-05-19T14:26:33.966Z,100753.80
2023-05-19T14:29:03.094Z,100752.84
2023-05-19T14:31:33.256Z,100755.30
2023-05-19T14:34:05.384Z,100756.95
2023-05-19T14:36:35.421Z,100761.15
2023-05-19T14:39:03.960Z,100755.36
2023-05-19T14:41:32.289Z,100757.15
2023-05-19T14:44:00.671Z,100758.72
2023-05-19T14:46:29.467Z,100757.12
2023-05-19T14:48:57.742Z,100755.30
2023-05-19T14:51:26.077Z,100759.05
2023-05-19T14:53:54.722Z,100756.73
2023-05-19T14:56:23.524Z,100757.89
2023-05-19T14:58:51.974Z,100758.92
2023-05-19T15:01:20.500Z,100763.78
2023-05-19T15:03:48.909Z,100766.75
2023-05-19T15:06:17.379Z,100773.27
2023-05-19T15:08:46.070Z,100774.86
2023-05-19T15:11:14.855Z,100775.31
2023-05-19T15:13:43.220Z,100769.02
2023-05-19T15:18:43.640Z,100775.23
2023-05-19T15:21:12.263Z,100767.06
2023-05-19T15:23:40.701Z,100767.45
2023-05-19T15:26:09.131Z,100761.63
2023-05-19T15:28:37.436Z,100762.45
2023-05-19T15:31:05.937Z,100765.80
2023-05-19T15:33:34.161Z,100764.89
2023-05-19T15:36:02.698Z,100766.33
2023-05-19T15:38:36.520Z,100761.55
2023-05-19T15:41:08.931Z,100760.64
2023-05-19T15:43:41.578Z,100758.87
2023-05-19T15:46:11.434Z,100755.82
2023-05-19T15:48:40.456Z,100755.48
2023-05-19T15:51:08.747Z,100748.09
2023-05-19T15:53:38.156Z,100753.50
2023-05-19T15:56:06.911Z,100750.02
2023-05-19T15:58:43.646Z,100750.28
2023-05-19T16:01:12.215Z,100753.30
2023-05-19T16:03:40.701Z,100758.84
2023-05-19T16:06:09.198Z,100755.37
2023-05-19T16:08:38.328Z,100748.63
2023-05-19T16:11:07.007Z,100749.42
2023-05-19T16:13:35.354Z,100753.96
2023-05-19T16:16:03.897Z,100753.59
2023-05-19T16:18:32.707Z,100752.44
2023-05-19T16:21:01.735Z,100752.64
2023-05-19T16:23:30.808Z,100758.77
2023-05-19T16:25:59.137Z,100761.77
2023-05-19T16:28:28.293Z,100759.89
2023-05-19T16:31:00.436Z,100754.05
2023-05-19T16:33:30.215Z,100753.15
2023-05-19T16:36:00.107Z,100749.46
2023-05-19T16:38:28.474Z,100749.61
2023-05-19T16:40:56.865Z,100750.83
2023-05-19T16:43:25.120Z,100753.68
2023-05-19T16:45:53.505Z,100754.83
2023-05-19T16:48:21.911Z,100757.23
2023-05-19T16:50:50.736Z,100753.23
2023-05-19T16:53:19.370Z,100751.32
2023-05-19T16:55:47.657Z,100757.31
2023-05-19T16:58:16.477Z,100755.46
2023-05-19T17:00:44.821Z,100757.99
2023-05-19T17:03:13.267Z,100754.33
2023-05-19T17:05:43.605Z,100752.73
2023-05-19T17:08:12.875Z,100751.45
2023-05-19T17:10:41.317Z,100748.96
2023-05-19T17:13:11.393Z,100749.39
2023-05-19T17:15:42.272Z,100750.60
2023-05-19T17:18:45.025Z,100748.34
2023-05-19T17:21:13.676Z,100748.48
2023-05-19T17:24:14.979Z,100748.14
2023-05-19T17:26:43.262Z,100751.00
2023-05-19T17:29:14.876Z,100749.64
2023-05-19T17:32:12.594Z,100752.08
2023-05-19T17:34:40.971Z,100755.72
2023-05-19T17:37:23.678Z,100752.94
2023-05-19T17:39:54.193Z,100756.16
2023-05-19T17:42:22.553Z,100760.30
2023-05-19T17:44:51.138Z,100761.65
2023-05-19T17:47:19.435Z,100764.90
2023-05-19T17:49:48.092Z,100768.90
2023-05-19T17:52:26.065Z,100772.64
2023-05-19T17:54:54.792Z,100778.09
2023-05-19T17:57:26.629Z,100778.89
2023-05-19T17:59:55.506Z,100780.23
2023-05-19T18:02:24.649Z,100783.02
2023-05-19T18:04:53.947Z,100786.79
2023-05-19T18:07:42.649Z,100785.31
2023-05-19T18:10:14.346Z,100783.16
2023-05-19T18:12:45.718Z,100781.09
2023-05-19T18:15:25.791Z,100776.50
2023-05-19T18:18:51.864Z,100777.23
2023-05-19T18:22:07.144Z,100777.92
2023-05-19T18:24:35.483Z,100777.78
2023-05-19T18:27:03.928Z,100776.00
2023-05-19T18:29:34.408Z,100778.59
2023-05-19T18:32:03.498Z,100780.11
2023-05-19T18:34:32.322Z,100784.91
2023-05-19T18:37:03.655Z,100787.24
2023-05-19T18:39:32.288Z,100782.77
2023-05-19T18:42:12.438Z,100782.33
2023-05-19T18:44:43.533Z,100785.24
2023-05-19T18:47:12.302Z,100785.70
2023-05-19T18:49:44.045Z,100787.15
2023-05-19T18:52:33.306Z,100791.02
2023-05-19T18:55:11.421Z,100791.42
2023-05-19T18:57:40.235Z,100792.32
2023-05-19T19:00:09.285Z,100786.56
2023-05-19T19:02:40.191Z,100783.81
2023-05-19T19:05:11.938Z,100779.31
2023-05-19T19:07:49.446Z,100779.30
2023-05-19T19:10:18.920Z,100779.47
2023-05-19T19:12:47.304Z,100780.34
2023-05-19T19:15:16.011Z,100777.84
2023-05-19T19:17:45.443Z,100774.94
2023-05-19T19:20:14.334Z,100776.04
2023-05-19T19:22:43.554Z,100775.26
2023-05-19T19:25:15.025Z,100772.69
2023-05-19T19:27:43.499Z,100772.81
2023-05-19T19:30:12.495Z,100772.02
2023-05-19T19:32:41.108Z,100769.06
2023-05-19T19:35:10.175Z,100767.81
2023-05-19T19:37:41.083Z,100765.15
2023-05-19T19:40:10.766Z,100763.42
2023-05-19T19:42:40.610Z,100763.09
2023-05-19T19:45:09.756Z,100767.46
2023-05-19T19:47:39.357Z,100774.19
2023-05-19T19:50:11.789Z,100773.02
2023-05-19T19:52:40.697Z,100776.58
2023-05-19T19:55:12.749Z,100782.38
2023-05-19T19:57:45.189Z,100781.69
2023-05-19T20:00:15.258Z,100774.00
2023-05-19T20:03:02.819Z,100776.39
2023-05-19T20:05:38.369Z,100779.51
2023-05-19T20:08:06.588Z,100783.91
2023-05-19T20:10:43.394Z,100785.98
2023-05-19T20:13:11.871Z,100788.25
2023-05-19T20:15:40.908Z,100793.23
2023-05-19T20:18:09.907Z,100797.14
2023-05-19T20:20:39.245Z,100795.39
2023-05-19T20:23:08.629Z,100794.38
2023-05-19T20:25:54.785Z,100796.33
2023-05-19T20:28:30.909Z,100797.73
2023-05-19T20:30:59.340Z,100795.03
2023-05-19T20:33:37.999Z,100791.92
2023-05-19T20:36:11.158Z,100792.96
2023-05-19T20:38:42.598Z,100795.23
2023-05-19T20:41:11.189Z,100792.58
2023-05-19T20:43:40.235Z,100791.02
2023-05-19T20:46:08.884Z,100792.09
2023-05-19T20:48:38.005Z,100791.79
2023-05-19T20:51:14.289Z,100793.77
2023-05-19T20:53:45.059Z,100795.86
2023-05-19T20:56:14.251Z,100794.95
2023-05-19T20:58:43.197Z,100795.64
2023-05-19T21:01:12.362Z,100792.83
2023-05-19T21:03:46.993Z,100797.09
2023-05-19T21:06:21.201Z,100797.64
2023-05-19T21:08:49.584Z,100796.76
2023-05-19T21:11:18.040Z,100799.93
2023-05-19T21:13:51.484Z,100797.84
2023-05-19T21:16:21.050Z,100799.23
2023-05-19T21:19:09.978Z,100795.35
2023-05-19T21:21:42.971Z,100801.71
2023-05-19T21:24:23.577Z,100801.36
2023-05-19T21:26:52.299Z,100802.64
2023-05-19T21:29:34.596Z,100804.59
2023-05-19T21:32:03.010Z,100804.11
2023-05-19T21:34:31.882Z,100803.48
2023-05-19T21:37:02.997Z,100805.61
2023-05-19T21:39:44.529Z,100805.08
2023-05-19T21:42:12.889Z,100803.05
2023-05-19T21:44:41.401Z,100806.80
2023-05-19T21:47:10.033Z,100808.08
2023-05-19T21:49:51.559Z,100811.98
2023-05-19T21:52:23.738Z,100813.58
2023-05-19T21:54:56.374Z,100814.45
2023-05-19T21:57:46.338Z,100815.08
2023-05-19T22:00:36.545Z,100812.64
2023-05-19T22:03:05.465Z,100813.92
2023-05-19T22:05:55.268Z,100809.07
2023-05-19T22:08:32.590Z,100809.55
2023-05-19T22:11:10.348Z,100812.86
2023-05-19T22:13:41.377Z,100809.52
2023-05-19T22:16:15.234Z,100803.26
2023-05-19T22:18:49.052Z,100804.18
2023-05-19T22:21:43.078Z,100801.99
2023-05-19T22:24:11.604Z,100802.52
2023-05-19T22:27:00.894Z,100802.52
2023-05-19T22:29:48.346Z,100800.11
2023-05-19T22:32:18.633Z,100799.09
2023-05-19T22:34:52.866Z,100792.63
2023-05-19T22:37:24.631Z,100793.21
2023-05-19T22:40:36.408Z,100789.79
2023-05-19T22:43:28.385Z,100784.44
2023-05-19T22:46:09.408Z,100783.20
2023-05-19T22:49:07.391Z,100775.96
2023-05-19T22:51:56.148Z,100775.45
2023-05-19T22:54:33.534Z,100776.05
2023-05-19T22:57:03.519Z,100770.11
2023-05-19T22:59:41.628Z,100768.35
2023-05-19T23:02:13.548Z,100766.23
2023-05-19T23:04:51.800Z,100765.92
2023-05-19T23:07:23.675Z,100764.52
2023-05-19T23:10:01.586Z,100763.94
2023-05-19T23:12:30.312Z,100756.73
2023-05-19T23:14:58.679Z,100756.20
2023-05-19T23:17:36.326Z,100757.45
2023-05-19T23:20:14.084Z,100754.83
2023-05-19T23:22:43.651Z,100753.61
2023-05-19T23:25:11.907Z,100753.30
2023-05-19T23:28:15.119Z,100751.89
2023-05-19T23:31:07.011Z,100749.93
2023-05-19T23:33:35.515Z,100754.85
2023-05-19T23:36:10.813Z,100751.90
2023-05-19T23:38:39.759Z,100753.69
2023-05-19T23:41:08.478Z,100751.27
2023-05-19T23:43:38.096Z,100753.42
2023-05-19T23:46:07.919Z,100751.84
2023-05-19T23:48:59.208Z,100750.42
2023-05-19T23:51:32.626Z,100749.69
2023-05-19T23:54:14.585Z,100752.63
2023-05-19T23:56:56.523Z,100749.45
2023-05-19T23:59:25.539Z,100749.27
